sensor_id;sensor_type;location;lat;lon;timestamp;P1;durP1;ratioP1;P2;durP2;ratioP2
27706;SDS011;36332;51.384;0.040;2022-10-20T00:01:15;59.15;;;27.83;;
27706;SDS011;36332;51.384;0.040;2022-10-20T00:03:45;63.65;;;27.05;;
27706;SDS011;36332;51.384;0.040;2022-10-20T00:08:41;56.13;;;25.65;;
27706;SDS011;36332;51.384;0.040;2022-10-20T00:11:11;49.33;;;26.35;;
27706;SDS011;36332;51.384;0.040;2022-10-20T00:13:41;68.45;;;26.85;;
27706;SDS011;36332;51.384;0.040;2022-10-20T00:16:09;53.55;;;27.27;;
27706;SDS011;36332;51.384;0.040;2022-10-20T00:18:37;63.20;;;29.02;;
27706;SDS011;36332;51.384;0.040;2022-10-20T00:21:09;55.42;;;26.02;;
27706;SDS011;36332;51.384;0.040;2022-10-20T00:23:39;56.15;;;27.67;;
27706;SDS011;36332;51.384;0.040;2022-10-20T00:26:09;54.70;;;25.13;;
27706;SDS011;36332;51.384;0.040;2022-10-20T00:28:38;54.20;;;27.08;;
27706;SDS011;36332;51.384;0.040;2022-10-20T00:31:07;69.80;;;29.02;;
27706;SDS011;36332;51.384;0.040;2022-10-20T00:33:35;53.60;;;27.23;;
27706;SDS011;36332;51.384;0.040;2022-10-20T00:36:03;52.70;;;26.77;;
27706;SDS011;36332;51.384;0.040;2022-10-20T00:38:33;60.97;;;28.17;;
27706;SDS011;36332;51.384;0.040;2022-10-20T00:41:01;61.97;;;27.95;;
27706;SDS011;36332;51.384;0.040;2022-10-20T00:43:49;60.53;;;27.15;;
27706;SDS011;36332;51.384;0.040;2022-10-20T00:46:19;54.58;;;26.48;;
27706;SDS011;36332;51.384;0.040;2022-10-20T00:48:55;62.87;;;27.23;;
27706;SDS011;36332;51.384;0.040;2022-10-20T00:51:25;58.05;;;27.90;;
27706;SDS011;36332;51.384;0.040;2022-10-20T00:53:57;59.67;;;28.65;;
27706;SDS011;36332;51.384;0.040;2022-10-20T00:56:45;57.50;;;27.35;;
27706;SDS011;36332;51.384;0.040;2022-10-20T00:59:15;58.83;;;29.63;;
27706;SDS011;36332;51.384;0.040;2022-10-20T01:01:45;63.17;;;28.80;;
27706;SDS011;36332;51.384;0.040;2022-10-20T01:04:13;73.18;;;29.27;;
27706;SDS011;36332;51.384;0.040;2022-10-20T01:06:41;62.03;;;30.02;;
27706;SDS011;36332;51.384;0.040;2022-10-20T01:09:10;61.80;;;28.98;;
27706;SDS011;36332;51.384;0.040;2022-10-20T01:11:50;65.10;;;29.95;;
27706;SDS011;36332;51.384;0.040;2022-10-20T01:29:29;63.53;;;28.67;;
27706;SDS011;36332;51.384;0.040;2022-10-20T01:37:05;67.20;;;30.98;;
27706;SDS011;36332;51.384;0.040;2022-10-20T01:39:51;59.42;;;29.55;;
27706;SDS011;36332;51.384;0.040;2022-10-20T01:42:24;59.60;;;29.73;;
27706;SDS011;36332;51.384;0.040;2022-10-20T01:44:57;58.80;;;29.70;;
27706;SDS011;36332;51.384;0.040;2022-10-20T01:47:27;61.47;;;28.23;;
27706;SDS011;36332;51.384;0.040;2022-10-20T01:49:56;60.95;;;28.27;;
27706;SDS011;36332;51.384;0.040;2022-10-20T01:52:24;67.63;;;30.67;;
27706;SDS011;36332;51.384;0.040;2022-10-20T01:54:54;64.07;;;28.95;;
27706;SDS011;36332;51.384;0.040;2022-10-20T02:02:51;51.95;;;27.95;;
27706;SDS011;36332;51.384;0.040;2022-10-20T02:05:39;56.60;;;29.23;;
27706;SDS011;36332;51.384;0.040;2022-10-20T02:08:19;58.72;;;29.02;;
27706;SDS011;36332;51.384;0.040;2022-10-20T02:10:59;55.17;;;28.30;;
27706;SDS011;36332;51.384;0.040;2022-10-20T02:13:29;70.50;;;30.10;;
27706;SDS011;36332;51.384;0.040;2022-10-20T02:15:58;61.92;;;31.25;;
27706;SDS011;36332;51.384;0.040;2022-10-20T02:18:30;64.47;;;29.33;;
27706;SDS011;36332;51.384;0.040;2022-10-20T02:21:04;62.40;;;29.80;;
27706;SDS011;36332;51.384;0.040;2022-10-20T02:23:34;64.57;;;29.33;;
27706;SDS011;36332;51.384;0.040;2022-10-20T02:26:08;64.10;;;30.40;;
27706;SDS011;36332;51.384;0.040;2022-10-20T02:31:09;58.90;;;28.92;;
27706;SDS011;36332;51.384;0.040;2022-10-20T02:33:37;62.58;;;30.65;;
27706;SDS011;36332;51.384;0.040;2022-10-20T02:36:06;70.82;;;30.88;;
27706;SDS011;36332;51.384;0.040;2022-10-20T02:38:41;69.35;;;31.40;;
27706;SDS011;36332;51.384;0.040;2022-10-20T02:41:09;66.40;;;31.15;;
27706;SDS011;36332;51.384;0.040;2022-10-20T02:43:37;63.15;;;31.63;;
27706;SDS011;36332;51.384;0.040;2022-10-20T02:46:04;69.47;;;34.17;;
27706;SDS011;36332;51.384;0.040;2022-10-20T02:48:32;63.50;;;31.65;;
27706;SDS011;36332;51.384;0.040;2022-10-20T02:51:00;65.60;;;32.67;;
27706;SDS011;36332;51.384;0.040;2022-10-20T02:53:28;73.35;;;31.23;;
27706;SDS011;36332;51.384;0.040;2022-10-20T02:55:55;69.10;;;32.80;;
27706;SDS011;36332;51.384;0.040;2022-10-20T02:58:24;74.38;;;32.15;;
27706;SDS011;36332;51.384;0.040;2022-10-20T03:00:52;67.47;;;33.38;;
27706;SDS011;36332;51.384;0.040;2022-10-20T03:03:20;65.68;;;31.70;;
27706;SDS011;36332;51.384;0.040;2022-10-20T03:05:48;73.63;;;32.55;;
27706;SDS011;36332;51.384;0.040;2022-10-20T03:08:15;81.72;;;34.10;;
27706;SDS011;36332;51.384;0.040;2022-10-20T03:10:43;70.00;;;33.58;;
27706;SDS011;36332;51.384;0.040;2022-10-20T03:13:11;69.75;;;33.47;;
27706;SDS011;36332;51.384;0.040;2022-10-20T03:15:41;78.10;;;34.47;;
27706;SDS011;36332;51.384;0.040;2022-10-20T03:18:09;86.45;;;33.50;;
27706;SDS011;36332;51.384;0.040;2022-10-20T03:20:36;65.82;;;33.95;;
27706;SDS011;36332;51.384;0.040;2022-10-20T03:23:04;64.93;;;32.33;;
27706;SDS011;36332;51.384;0.040;2022-10-20T03:25:32;71.78;;;33.80;;
27706;SDS011;36332;51.384;0.040;2022-10-20T03:27:59;70.40;;;32.00;;
27706;SDS011;36332;51.384;0.040;2022-10-20T03:30:27;78.07;;;36.15;;
27706;SDS011;36332;51.384;0.040;2022-10-20T03:32:55;73.63;;;33.17;;
27706;SDS011;36332;51.384;0.040;2022-10-20T03:35:23;93.10;;;34.13;;
27706;SDS011;36332;51.384;0.040;2022-10-20T03:37:50;75.15;;;32.80;;
27706;SDS011;36332;51.384;0.040;2022-10-20T03:40:18;64.47;;;32.83;;
27706;SDS011;36332;51.384;0.040;2022-10-20T03:42:46;69.75;;;33.92;;
27706;SDS011;36332;51.384;0.040;2022-10-20T03:45:14;68.88;;;35.15;;
27706;SDS011;36332;51.384;0.040;2022-10-20T03:47:44;70.40;;;34.53;;
27706;SDS011;36332;51.384;0.040;2022-10-20T03:50:12;77.85;;;35.50;;
27706;SDS011;36332;51.384;0.040;2022-10-20T03:52:40;77.32;;;34.00;;
27706;SDS011;36332;51.384;0.040;2022-10-20T03:55:07;80.15;;;34.33;;
27706;SDS011;36332;51.384;0.040;2022-10-20T03:57:35;77.82;;;35.15;;
27706;SDS011;36332;51.384;0.040;2022-10-20T04:00:04;83.35;;;36.58;;
27706;SDS011;36332;51.384;0.040;2022-10-20T04:02:38;81.60;;;36.40;;
27706;SDS011;36332;51.384;0.040;2022-10-20T04:05:11;66.88;;;33.85;;
27706;SDS011;36332;51.384;0.040;2022-10-20T04:07:41;75.80;;;34.72;;
27706;SDS011;36332;51.384;0.040;2022-10-20T04:10:09;82.85;;;36.08;;
27706;SDS011;36332;51.384;0.040;2022-10-20T04:12:37;79.82;;;35.60;;
27706;SDS011;36332;51.384;0.040;2022-10-20T04:15:06;73.93;;;35.20;;
27706;SDS011;36332;51.384;0.040;2022-10-20T04:17:34;77.25;;;34.30;;
27706;SDS011;36332;51.384;0.040;2022-10-20T04:20:10;74.15;;;34.88;;
27706;SDS011;36332;51.384;0.040;2022-10-20T04:22:37;78.35;;;34.47;;
27706;SDS011;36332;51.384;0.040;2022-10-20T04:25:06;86.15;;;36.00;;
27706;SDS011;36332;51.384;0.040;2022-10-20T04:27:34;76.75;;;34.78;;
27706;SDS011;36332;51.384;0.040;2022-10-20T04:30:02;75.88;;;33.60;;
27706;SDS011;36332;51.384;0.040;2022-10-20T04:32:30;80.28;;;33.92;;
27706;SDS011;36332;51.384;0.040;2022-10-20T04:34:57;68.07;;;34.40;;
27706;SDS011;36332;51.384;0.040;2022-10-20T04:37:25;69.65;;;33.30;;
27706;SDS011;36332;51.384;0.040;2022-10-20T04:39:53;67.78;;;34.80;;
27706;SDS011;36332;51.384;0.040;2022-10-20T04:42:23;69.80;;;32.42;;
27706;SDS011;36332;51.384;0.040;2022-10-20T04:44:51;73.88;;;32.97;;
27706;SDS011;36332;51.384;0.040;2022-10-20T04:47:18;71.80;;;34.53;;
27706;SDS011;36332;51.384;0.040;2022-10-20T04:49:46;74.28;;;33.35;;
27706;SDS011;36332;51.384;0.040;2022-10-20T04:52:14;87.75;;;34.33;;
27706;SDS011;36332;51.384;0.040;2022-10-20T04:54:43;77.82;;;33.05;;
27706;SDS011;36332;51.384;0.040;2022-10-20T04:57:10;77.40;;;32.80;;
27706;SDS011;36332;51.384;0.040;2022-10-20T04:59:38;65.13;;;33.25;;
27706;SDS011;36332;51.384;0.040;2022-10-20T05:02:06;79.47;;;33.55;;
27706;SDS011;36332;51.384;0.040;2022-10-20T05:04:34;81.47;;;33.15;;
27706;SDS011;36332;51.384;0.040;2022-10-20T05:07:01;86.45;;;35.25;;
27706;SDS011;36332;51.384;0.040;2022-10-20T05:09:29;73.53;;;31.13;;
27706;SDS011;36332;51.384;0.040;2022-10-20T05:11:58;69.10;;;33.40;;
27706;SDS011;36332;51.384;0.040;2022-10-20T05:14:26;74.82;;;34.63;;
27706;SDS011;36332;51.384;0.040;2022-10-20T05:16:54;85.10;;;34.30;;
27706;SDS011;36332;51.384;0.040;2022-10-20T05:19:21;80.22;;;34.42;;
27706;SDS011;36332;51.384;0.040;2022-10-20T05:21:49;73.85;;;34.20;;
27706;SDS011;36332;51.384;0.040;2022-10-20T05:24:17;67.40;;;34.28;;
27706;SDS011;36332;51.384;0.040;2022-10-20T05:26:49;82.63;;;35.17;;
27706;SDS011;36332;51.384;0.040;2022-10-20T05:29:16;80.40;;;34.28;;
27706;SDS011;36332;51.384;0.040;2022-10-20T05:31:44;82.45;;;35.38;;
27706;SDS011;36332;51.384;0.040;2022-10-20T05:34:12;77.30;;;35.13;;
27706;SDS011;36332;51.384;0.040;2022-10-20T05:36:40;84.18;;;33.60;;
27706;SDS011;36332;51.384;0.040;2022-10-20T05:39:08;74.60;;;34.60;;
27706;SDS011;36332;51.384;0.040;2022-10-20T05:41:37;84.93;;;36.35;;
27706;SDS011;36332;51.384;0.040;2022-10-20T05:44:05;88.28;;;38.03;;
27706;SDS011;36332;51.384;0.040;2022-10-20T05:46:37;74.50;;;33.47;;
27706;SDS011;36332;51.384;0.040;2022-10-20T05:49:11;81.97;;;35.03;;
27706;SDS011;36332;51.384;0.040;2022-10-20T05:51:42;73.35;;;33.95;;
27706;SDS011;36332;51.384;0.040;2022-10-20T05:54:10;66.55;;;34.45;;
27706;SDS011;36332;51.384;0.040;2022-10-20T05:56:39;90.07;;;35.03;;
27706;SDS011;36332;51.384;0.040;2022-10-20T05:59:07;81.13;;;35.80;;
27706;SDS011;36332;51.384;0.040;2022-10-20T06:01:35;82.65;;;36.22;;
27706;SDS011;36332;51.384;0.040;2022-10-20T06:04:15;76.38;;;35.58;;
27706;SDS011;36332;51.384;0.040;2022-10-20T06:06:44;83.53;;;36.60;;
27706;SDS011;36332;51.384;0.040;2022-10-20T06:09:14;81.35;;;36.42;;
27706;SDS011;36332;51.384;0.040;2022-10-20T06:11:42;83.28;;;37.10;;
27706;SDS011;36332;51.384;0.040;2022-10-20T06:14:10;67.95;;;36.45;;
27706;SDS011;36332;51.384;0.040;2022-10-20T06:16:37;80.15;;;36.25;;
27706;SDS011;36332;51.384;0.040;2022-10-20T06:19:05;85.97;;;36.92;;
27706;SDS011;36332;51.384;0.040;2022-10-20T06:21:33;89.88;;;37.13;;
27706;SDS011;36332;51.384;0.040;2022-10-20T06:24:03;89.30;;;34.83;;
27706;SDS011;36332;51.384;0.040;2022-10-20T06:26:32;92.10;;;37.50;;
27706;SDS011;36332;51.384;0.040;2022-10-20T06:29:06;83.05;;;37.53;;
27706;SDS011;36332;51.384;0.040;2022-10-20T06:31:37;84.20;;;34.85;;
27706;SDS011;36332;51.384;0.040;2022-10-20T06:34:12;81.18;;;34.65;;
27706;SDS011;36332;51.384;0.040;2022-10-20T06:36:43;70.80;;;33.15;;
27706;SDS011;36332;51.384;0.040;2022-10-20T06:39:12;69.53;;;34.33;;
27706;SDS011;36332;51.384;0.040;2022-10-20T06:41:41;78.97;;;33.47;;
27706;SDS011;36332;51.384;0.040;2022-10-20T06:44:21;75.97;;;34.50;;
27706;SDS011;36332;51.384;0.040;2022-10-20T06:46:49;71.22;;;32.35;;
27706;SDS011;36332;51.384;0.040;2022-10-20T06:49:20;69.80;;;32.80;;
27706;SDS011;36332;51.384;0.040;2022-10-20T06:51:49;83.00;;;33.55;;
27706;SDS011;36332;51.384;0.040;2022-10-20T06:54:17;83.20;;;32.72;;
27706;SDS011;36332;51.384;0.040;2022-10-20T06:56:45;71.80;;;32.90;;
27706;SDS011;36332;51.384;0.040;2022-10-20T06:59:13;69.55;;;32.58;;
27706;SDS011;36332;51.384;0.040;2022-10-20T07:01:42;70.70;;;33.88;;
27706;SDS011;36332;51.384;0.040;2022-10-20T07:04:12;76.63;;;33.13;;
27706;SDS011;36332;51.384;0.040;2022-10-20T07:06:41;75.75;;;33.13;;
27706;SDS011;36332;51.384;0.040;2022-10-20T07:09:15;68.15;;;31.80;;
27706;SDS011;36332;51.384;0.040;2022-10-20T07:11:44;73.15;;;33.03;;
27706;SDS011;36332;51.384;0.040;2022-10-20T07:14:12;64.35;;;31.42;;
27706;SDS011;36332;51.384;0.040;2022-10-20T07:16:40;60.05;;;29.67;;
27706;SDS011;36332;51.384;0.040;2022-10-20T07:19:08;63.78;;;30.95;;
27706;SDS011;36332;51.384;0.040;2022-10-20T07:21:36;58.30;;;31.27;;
27706;SDS011;36332;51.384;0.040;2022-10-20T07:24:10;55.95;;;29.65;;
27706;SDS011;36332;51.384;0.040;2022-10-20T07:26:38;60.63;;;30.35;;
27706;SDS011;36332;51.384;0.040;2022-10-20T07:29:06;60.13;;;31.08;;
27706;SDS011;36332;51.384;0.040;2022-10-20T07:31:36;53.38;;;28.20;;
27706;SDS011;36332;51.384;0.040;2022-10-20T07:34:07;57.38;;;27.90;;
27706;SDS011;36332;51.384;0.040;2022-10-20T07:39:21;48.55;;;25.80;;
27706;SDS011;36332;51.384;0.040;2022-10-20T07:41:49;58.47;;;27.33;;
27706;SDS011;36332;51.384;0.040;2022-10-20T07:44:18;56.38;;;27.20;;
27706;SDS011;36332;51.384;0.040;2022-10-20T07:46:46;46.45;;;25.80;;
27706;SDS011;36332;51.384;0.040;2022-10-20T07:49:14;49.80;;;26.40;;
27706;SDS011;36332;51.384;0.040;2022-10-20T07:52:01;62.03;;;26.65;;
27706;SDS011;36332;51.384;0.040;2022-10-20T07:54:29;55.95;;;26.25;;
27706;SDS011;36332;51.384;0.040;2022-10-20T07:56:57;53.20;;;27.27;;
27706;SDS011;36332;51.384;0.040;2022-10-20T07:59:25;53.45;;;25.80;;
27706;SDS011;36332;51.384;0.040;2022-10-20T08:01:54;52.90;;;25.67;;
27706;SDS011;36332;51.384;0.040;2022-10-20T08:04:25;55.08;;;24.45;;
27706;SDS011;36332;51.384;0.040;2022-10-20T08:06:53;50.83;;;23.40;;
27706;SDS011;36332;51.384;0.040;2022-10-20T08:09:21;45.33;;;24.40;;
27706;SDS011;36332;51.384;0.040;2022-10-20T08:11:48;44.65;;;24.55;;
27706;SDS011;36332;51.384;0.040;2022-10-20T08:14:22;49.10;;;23.13;;
27706;SDS011;36332;51.384;0.040;2022-10-20T08:16:52;49.40;;;22.17;;
27706;SDS011;36332;51.384;0.040;2022-10-20T08:19:27;43.85;;;20.05;;
27706;SDS011;36332;51.384;0.040;2022-10-20T08:22:09;37.90;;;21.33;;
27706;SDS011;36332;51.384;0.040;2022-10-20T08:24:37;32.65;;;19.08;;
27706;SDS011;36332;51.384;0.040;2022-10-20T08:27:05;37.22;;;19.40;;
27706;SDS011;36332;51.384;0.040;2022-10-20T08:29:32;39.88;;;21.63;;
27706;SDS011;36332;51.384;0.040;2022-10-20T08:32:00;39.97;;;20.23;;
27706;SDS011;36332;51.384;0.040;2022-10-20T08:34:28;57.22;;;21.63;;
27706;SDS011;36332;51.384;0.040;2022-10-20T08:36:56;40.65;;;19.42;;
27706;SDS011;36332;51.384;0.040;2022-10-20T08:39:24;37.85;;;19.23;;
27706;SDS011;36332;51.384;0.040;2022-10-20T08:41:52;37.45;;;19.95;;
27706;SDS011;36332;51.384;0.040;2022-10-20T08:44:34;34.65;;;19.90;;
27706;SDS011;36332;51.384;0.040;2022-10-20T08:47:03;43.05;;;19.55;;
27706;SDS011;36332;51.384;0.040;2022-10-20T08:49:38;40.17;;;20.05;;
27706;SDS011;36332;51.384;0.040;2022-10-20T08:52:10;47.20;;;20.65;;
27706;SDS011;36332;51.384;0.040;2022-10-20T08:54:40;32.67;;;20.55;;
27706;SDS011;36332;51.384;0.040;2022-10-20T08:57:19;32.17;;;19.08;;
27706;SDS011;36332;51.384;0.040;2022-10-20T08:59:52;38.53;;;18.30;;
27706;SDS011;36332;51.384;0.040;2022-10-20T09:02:22;33.55;;;17.48;;
27706;SDS011;36332;51.384;0.040;2022-10-20T09:04:50;27.50;;;16.63;;
27706;SDS011;36332;51.384;0.040;2022-10-20T09:07:37;40.47;;;17.70;;
27706;SDS011;36332;51.384;0.040;2022-10-20T09:13:18;30.80;;;15.35;;
27706;SDS011;36332;51.384;0.040;2022-10-20T09:18:59;25.08;;;14.85;;
27706;SDS011;36332;51.384;0.040;2022-10-20T09:21:27;23.80;;;13.10;;
27706;SDS011;36332;51.384;0.040;2022-10-20T09:24:05;26.88;;;13.13;;
27706;SDS011;36332;51.384;0.040;2022-10-20T09:26:34;21.02;;;13.15;;
27706;SDS011;36332;51.384;0.040;2022-10-20T09:29:33;26.35;;;14.18;;
27706;SDS011;36332;51.384;0.040;2022-10-20T09:32:02;30.15;;;13.23;;
27706;SDS011;36332;51.384;0.040;2022-10-20T09:35:25;27.15;;;13.27;;
27706;SDS011;36332;51.384;0.040;2022-10-20T09:40:25;28.45;;;13.70;;
27706;SDS011;36332;51.384;0.040;2022-10-20T09:42:58;21.60;;;11.88;;
27706;SDS011;36332;51.384;0.040;2022-10-20T09:45:30;20.88;;;11.23;;
27706;SDS011;36332;51.384;0.040;2022-10-20T09:48:02;22.95;;;11.40;;
27706;SDS011;36332;51.384;0.040;2022-10-20T09:50:46;19.90;;;9.82;;
27706;SDS011;36332;51.384;0.040;2022-10-20T09:53:33;18.08;;;10.30;;
27706;SDS011;36332;51.384;0.040;2022-10-20T09:56:05;25.13;;;11.55;;
27706;SDS011;36332;51.384;0.040;2022-10-20T09:58:36;20.70;;;10.82;;
27706;SDS011;36332;51.384;0.040;2022-10-20T10:01:06;21.35;;;11.60;;
27706;SDS011;36332;51.384;0.040;2022-10-20T10:03:44;27.13;;;17.13;;
27706;SDS011;36332;51.384;0.040;2022-10-20T10:12:31;23.65;;;13.70;;
27706;SDS011;36332;51.384;0.040;2022-10-20T10:15:03;21.17;;;13.70;;
27706;SDS011;36332;51.384;0.040;2022-10-20T10:17:34;47.58;;;28.02;;
27706;SDS011;36332;51.384;0.040;2022-10-20T10:22:36;29.05;;;13.88;;
27706;SDS011;36332;51.384;0.040;2022-10-20T10:25:05;22.33;;;9.52;;
27706;SDS011;36332;51.384;0.040;2022-10-20T10:27:40;21.75;;;9.95;;
27706;SDS011;36332;51.384;0.040;2022-10-20T10:32:53;18.73;;;10.00;;
27706;SDS011;36332;51.384;0.040;2022-10-20T10:35:23;25.30;;;10.15;;
27706;SDS011;36332;51.384;0.040;2022-10-20T10:38:02;16.40;;;9.20;;
27706;SDS011;36332;51.384;0.040;2022-10-20T10:57:25;17.15;;;8.10;;
27706;SDS011;36332;51.384;0.040;2022-10-20T11:00:02;17.45;;;8.35;;
27706;SDS011;36332;51.384;0.040;2022-10-20T11:02:39;15.80;;;7.68;;
27706;SDS011;36332;51.384;0.040;2022-10-20T11:08:16;17.17;;;8.70;;
27706;SDS011;36332;51.384;0.040;2022-10-20T11:15:58;18.17;;;9.18;;
27706;SDS011;36332;51.384;0.040;2022-10-20T11:28:46;18.33;;;10.18;;
27706;SDS011;36332;51.384;0.040;2022-10-20T11:34:02;14.27;;;6.95;;
27706;SDS011;36332;51.384;0.040;2022-10-20T11:36:36;14.30;;;7.00;;
27706;SDS011;36332;51.384;0.040;2022-10-20T11:41:46;15.25;;;7.45;;
27706;SDS011;36332;51.384;0.040;2022-10-20T11:49:40;13.15;;;5.47;;
27706;SDS011;36332;51.384;0.040;2022-10-20T12:11:29;17.38;;;4.75;;
27706;SDS011;36332;51.384;0.040;2022-10-20T12:19:25;21.27;;;8.50;;
27706;SDS011;36332;51.384;0.040;2022-10-20T12:25:10;16.88;;;6.30;;
27706;SDS011;36332;51.384;0.040;2022-10-20T12:27:30;10.93;;;5.10;;
27706;SDS011;36332;51.384;0.040;2022-10-20T12:29:59;11.93;;;4.22;;
27706;SDS011;36332;51.384;0.040;2022-10-20T12:32:50;22.77;;;6.00;;
27706;SDS011;36332;51.384;0.040;2022-10-20T12:35:26;16.38;;;4.70;;
27706;SDS011;36332;51.384;0.040;2022-10-20T12:38:02;12.55;;;3.03;;
27706;SDS011;36332;51.384;0.040;2022-10-20T12:40:30;15.32;;;3.72;;
27706;SDS011;36332;51.384;0.040;2022-10-20T12:43:33;13.60;;;3.10;;
27706;SDS011;36332;51.384;0.040;2022-10-20T12:46:18;10.60;;;3.63;;
27706;SDS011;36332;51.384;0.040;2022-10-20T12:48:54;13.57;;;3.42;;
27706;SDS011;36332;51.384;0.040;2022-10-20T12:51:31;16.38;;;4.63;;
27706;SDS011;36332;51.384;0.040;2022-10-20T12:54:21;11.60;;;5.25;;
27706;SDS011;36332;51.384;0.040;2022-10-20T12:57:05;13.00;;;3.67;;
27706;SDS011;36332;51.384;0.040;2022-10-20T12:59:50;11.75;;;3.25;;
27706;SDS011;36332;51.384;0.040;2022-10-20T13:13:40;15.27;;;3.67;;
27706;SDS011;36332;51.384;0.040;2022-10-20T13:15:42;11.65;;;3.53;;
27706;SDS011;36332;51.384;0.040;2022-10-20T13:18:13;14.77;;;4.97;;
27706;SDS011;36332;51.384;0.040;2022-10-20T13:23:45;13.73;;;3.92;;
27706;SDS011;36332;51.384;0.040;2022-10-20T13:26:21;25.63;;;4.20;;
27706;SDS011;36332;51.384;0.040;2022-10-20T13:28:58;8.48;;;3.47;;
27706;SDS011;36332;51.384;0.040;2022-10-20T13:31:41;16.05;;;4.60;;
27706;SDS011;36332;51.384;0.040;2022-10-20T13:34:38;9.20;;;2.50;;
27706;SDS011;36332;51.384;0.040;2022-10-20T13:39:54;11.30;;;3.35;;
27706;SDS011;36332;51.384;0.040;2022-10-20T13:45:09;9.75;;;3.58;;
27706;SDS011;36332;51.384;0.040;2022-10-20T13:47:51;9.77;;;5.30;;
27706;SDS011;36332;51.384;0.040;2022-10-20T13:50:36;11.63;;;4.32;;
27706;SDS011;36332;51.384;0.040;2022-10-20T13:53:20;11.10;;;3.65;;
27706;SDS011;36332;51.384;0.040;2022-10-20T13:55:56;11.68;;;2.90;;
27706;SDS011;36332;51.384;0.040;2022-10-20T13:58:31;5.72;;;2.10;;
27706;SDS011;36332;51.384;0.040;2022-10-20T14:01:03;5.40;;;1.90;;
27706;SDS011;36332;51.384;0.040;2022-10-20T14:03:39;3.63;;;2.22;;
27706;SDS011;36332;51.384;0.040;2022-10-20T14:08:54;3.63;;;2.15;;
27706;SDS011;36332;51.384;0.040;2022-10-20T14:11:24;6.43;;;1.75;;
27706;SDS011;36332;51.384;0.040;2022-10-20T14:13:57;3.70;;;1.90;;
27706;SDS011;36332;51.384;0.040;2022-10-20T14:16:27;6.45;;;2.05;;
27706;SDS011;36332;51.384;0.040;2022-10-20T14:19:04;3.90;;;1.60;;
27706;SDS011;36332;51.384;0.040;2022-10-20T14:21:42;2.60;;;1.45;;
27706;SDS011;36332;51.384;0.040;2022-10-20T14:24:24;3.42;;;1.00;;
27706;SDS011;36332;51.384;0.040;2022-10-20T14:26:52;5.70;;;1.40;;
27706;SDS011;36332;51.384;0.040;2022-10-20T14:29:21;3.97;;;1.48;;
27706;SDS011;36332;51.384;0.040;2022-10-20T14:31:52;5.35;;;1.52;;
27706;SDS011;36332;51.384;0.040;2022-10-20T14:34:22;2.90;;;1.17;;
27706;SDS011;36332;51.384;0.040;2022-10-20T14:36:51;2.47;;;1.27;;
27706;SDS011;36332;51.384;0.040;2022-10-20T14:39:28;4.85;;;1.23;;
27706;SDS011;36332;51.384;0.040;2022-10-20T14:42:14;1.95;;;1.17;;
27706;SDS011;36332;51.384;0.040;2022-10-20T14:45:04;3.88;;;1.20;;
27706;SDS011;36332;51.384;0.040;2022-10-20T14:47:33;2.88;;;1.40;;
27706;SDS011;36332;51.384;0.040;2022-10-20T14:50:05;2.40;;;1.05;;
27706;SDS011;36332;51.384;0.040;2022-10-20T14:52:33;4.00;;;1.58;;
27706;SDS011;36332;51.384;0.040;2022-10-20T14:55:24;2.95;;;1.23;;
27706;SDS011;36332;51.384;0.040;2022-10-20T14:57:56;3.35;;;0.82;;
27706;SDS011;36332;51.384;0.040;2022-10-20T15:00:28;3.53;;;1.00;;
27706;SDS011;36332;51.384;0.040;2022-10-20T15:02:57;2.75;;;0.90;;
27706;SDS011;36332;51.384;0.040;2022-10-20T15:07:57;4.20;;;1.73;;
27706;SDS011;36332;51.384;0.040;2022-10-20T15:10:33;3.97;;;1.45;;
27706;SDS011;36332;51.384;0.040;2022-10-20T15:13:00;4.40;;;1.60;;
27706;SDS011;36332;51.384;0.040;2022-10-20T15:15:34;2.92;;;1.40;;
27706;SDS011;36332;51.384;0.040;2022-10-20T15:20:41;5.15;;;1.58;;
27706;SDS011;36332;51.384;0.040;2022-10-20T15:25:40;4.13;;;1.80;;
27706;SDS011;36332;51.384;0.040;2022-10-20T15:30:51;2.92;;;1.38;;
27706;SDS011;36332;51.384;0.040;2022-10-20T15:33:19;5.78;;;1.55;;
27706;SDS011;36332;51.384;0.040;2022-10-20T15:35:47;4.95;;;1.23;;
27706;SDS011;36332;51.384;0.040;2022-10-20T15:38:14;5.72;;;1.20;;
27706;SDS011;36332;51.384;0.040;2022-10-20T15:40:42;6.13;;;3.33;;
27706;SDS011;36332;51.384;0.040;2022-10-20T15:43:14;10.00;;;3.28;;
27706;SDS011;36332;51.384;0.040;2022-10-20T15:45:44;4.65;;;1.88;;
27706;SDS011;36332;51.384;0.040;2022-10-20T15:48:14;7.28;;;1.95;;
27706;SDS011;36332;51.384;0.040;2022-10-20T15:50:43;2.67;;;1.60;;
27706;SDS011;36332;51.384;0.040;2022-10-20T15:53:11;5.30;;;1.80;;
27706;SDS011;36332;51.384;0.040;2022-10-20T15:55:40;7.05;;;1.63;;
27706;SDS011;36332;51.384;0.040;2022-10-20T15:58:08;6.43;;;1.63;;
27706;SDS011;36332;51.384;0.040;2022-10-20T16:00:36;9.80;;;2.38;;
27706;SDS011;36332;51.384;0.040;2022-10-20T16:03:04;12.15;;;2.38;;
27706;SDS011;36332;51.384;0.040;2022-10-20T16:05:32;7.43;;;1.92;;
27706;SDS011;36332;51.384;0.040;2022-10-20T16:08:00;3.53;;;1.88;;
27706;SDS011;36332;51.384;0.040;2022-10-20T16:10:28;7.50;;;2.50;;
27706;SDS011;36332;51.384;0.040;2022-10-20T16:12:56;7.03;;;3.08;;
27706;SDS011;36332;51.384;0.040;2022-10-20T16:15:24;14.95;;;4.20;;
27706;SDS011;36332;51.384;0.040;2022-10-20T16:17:57;11.90;;;2.83;;
27706;SDS011;36332;51.384;0.040;2022-10-20T16:20:25;10.00;;;2.50;;
27706;SDS011;36332;51.384;0.040;2022-10-20T16:22:52;7.05;;;2.80;;
27706;SDS011;36332;51.384;0.040;2022-10-20T16:25:20;10.35;;;2.88;;
27706;SDS011;36332;51.384;0.040;2022-10-20T16:27:48;7.22;;;2.30;;
27706;SDS011;36332;51.384;0.040;2022-10-20T16:30:16;7.53;;;2.78;;
27706;SDS011;36332;51.384;0.040;2022-10-20T16:32:43;5.70;;;2.60;;
27706;SDS011;36332;51.384;0.040;2022-10-20T16:35:11;12.73;;;2.47;;
27706;SDS011;36332;51.384;0.040;2022-10-20T16:37:39;7.60;;;2.55;;
27706;SDS011;36332;51.384;0.040;2022-10-20T16:40:07;14.68;;;2.90;;
27706;SDS011;36332;51.384;0.040;2022-10-20T16:42:35;9.77;;;3.35;;
27706;SDS011;36332;51.384;0.040;2022-10-20T16:45:03;10.63;;;2.53;;
27706;SDS011;36332;51.384;0.040;2022-10-20T16:47:31;10.00;;;3.17;;
27706;SDS011;36332;51.384;0.040;2022-10-20T16:49:59;17.02;;;2.50;;
27706;SDS011;36332;51.384;0.040;2022-10-20T16:52:27;11.63;;;2.40;;
27706;SDS011;36332;51.384;0.040;2022-10-20T16:54:54;12.32;;;2.33;;
27706;SDS011;36332;51.384;0.040;2022-10-20T16:57:22;11.00;;;2.97;;
27706;SDS011;36332;51.384;0.040;2022-10-20T16:59:52;8.10;;;2.63;;
27706;SDS011;36332;51.384;0.040;2022-10-20T17:02:19;11.93;;;2.50;;
27706;SDS011;36332;51.384;0.040;2022-10-20T17:04:49;12.38;;;3.03;;
27706;SDS011;36332;51.384;0.040;2022-10-20T17:07:17;14.48;;;3.70;;
27706;SDS011;36332;51.384;0.040;2022-10-20T17:09:44;8.55;;;2.38;;
27706;SDS011;36332;51.384;0.040;2022-10-20T17:12:12;13.00;;;3.00;;
27706;SDS011;36332;51.384;0.040;2022-10-20T17:14:40;6.53;;;2.20;;
27706;SDS011;36332;51.384;0.040;2022-10-20T17:17:08;15.00;;;4.00;;
27706;SDS011;36332;51.384;0.040;2022-10-20T17:19:36;11.95;;;2.30;;
27706;SDS011;36332;51.384;0.040;2022-10-20T17:22:06;13.65;;;2.63;;
27706;SDS011;36332;51.384;0.040;2022-10-20T17:24:36;9.27;;;2.28;;
27706;SDS011;36332;51.384;0.040;2022-10-20T17:27:04;16.98;;;3.45;;
27706;SDS011;36332;51.384;0.040;2022-10-20T17:29:32;9.85;;;2.65;;
27706;SDS011;36332;51.384;0.040;2022-10-20T17:31:59;12.90;;;2.95;;